createdAt,value
2022-10-19T00:01:21.155Z,62
2022-10-19T00:03:54.009Z,62
2022-10-19T00:06:26.418Z,62
2022-10-19T00:08:58.276Z,63
2022-10-19T00:11:29.455Z,63
2022-10-19T00:14:00.932Z,63
2022-10-19T00:16:31.754Z,63
2022-10-19T00:19:04.445Z,63
2022-10-19T00:21:40.266Z,63
2022-10-19T00:24:11.296Z,63
2022-10-19T00:26:41.940Z,63
2022-10-19T00:29:13.756Z,63
2022-10-19T00:31:45.366Z,63
2022-10-19T00:34:16.240Z,63
2022-10-19T00:39:20.365Z,63
2022-10-19T00:41:51.106Z,63
2022-10-19T00:44:21.923Z,64
2022-10-19T00:46:52.927Z,64
2022-10-19T00:49:24.881Z,64
2022-10-19T00:51:54.257Z,64
2022-10-19T00:54:26.813Z,64
2022-10-19T00:56:57.768Z,64
2022-10-19T00:59:28.445Z,63
2022-10-19T01:02:01.986Z,64
2022-10-19T01:04:32.628Z,64
2022-10-19T01:07:03.583Z,64
2022-10-19T01:09:34.074Z,64
2022-10-19T01:12:05.352Z,64
2022-10-19T01:14:40.060Z,64
2022-10-19T01:17:10.781Z,64
2022-10-19T01:19:41.260Z,64
2022-10-19T01:22:12.533Z,65
2022-10-19T01:24:43.449Z,65
2022-10-19T01:27:14.411Z,65
2022-10-19T01:29:45.329Z,65
2022-10-19T01:32:16.567Z,65
2022-10-19T01:34:48.088Z,64
2022-10-19T01:37:17.392Z,64
2022-10-19T01:39:49.202Z,64
2022-10-19T01:42:19.523Z,65
2022-10-19T01:44:50.903Z,65
2022-10-19T01:47:22.660Z,65
2022-10-19T01:49:53.528Z,65
2022-10-19T01:52:24.304Z,64
2022-10-19T01:54:55.991Z,64
2022-10-19T01:57:27.154Z,65
2022-10-19T01:59:58.417Z,65
2022-10-19T02:02:30.894Z,65
2022-10-19T02:05:02.791Z,64
2022-10-19T02:07:34.204Z,64
2022-10-19T02:10:05.466Z,64
2022-10-19T02:12:37.225Z,64
2022-10-19T02:15:08.390Z,64
2022-10-19T02:17:37.546Z,65
2022-10-19T02:20:08.476Z,65
2022-10-19T02:22:39.599Z,65
2022-10-19T02:25:10.557Z,64
2022-10-19T02:27:41.491Z,64
2022-10-19T02:30:10.750Z,64
2022-10-19T02:32:41.609Z,64
2022-10-19T02:35:12.341Z,64
2022-10-19T02:37:46.113Z,64
2022-10-19T02:40:15.369Z,64
2022-10-19T02:42:46.429Z,65
2022-10-19T02:45:17.305Z,64
2022-10-19T02:47:48.891Z,65
2022-10-19T02:50:20.026Z,65
2022-10-19T02:52:51.186Z,65
2022-10-19T02:55:21.948Z,64
2022-10-19T02:57:52.515Z,64
2022-10-19T03:00:22.067Z,64
2022-10-19T03:02:52.160Z,64
2022-10-19T03:05:23.617Z,65
2022-10-19T03:07:55.729Z,64
2022-10-19T03:10:26.361Z,65
2022-10-19T03:12:57.172Z,65
2022-10-19T03:15:28.737Z,65
2022-10-19T03:17:59.431Z,65
2022-10-19T03:20:30.431Z,65
2022-10-19T03:23:02.353Z,66
2022-10-19T03:25:32.081Z,66
2022-10-19T03:28:02.539Z,66
2022-10-19T03:30:33.650Z,66
2022-10-19T03:33:06.187Z,66
2022-10-19T03:35:37.769Z,66
2022-10-19T03:38:09.480Z,66
2022-10-19T03:40:41.058Z,66
2022-10-19T03:43:11.977Z,66
2022-10-19T03:45:43.365Z,66
2022-10-19T03:48:14.981Z,66
2022-10-19T03:50:47.209Z,66
2022-10-19T03:53:17.444Z,66
2022-10-19T03:55:48.006Z,66
2022-10-19T03:58:17.773Z,66
2022-10-19T04:03:27.200Z,67
2022-10-19T04:05:58.938Z,66
2022-10-19T04:08:30.822Z,66
2022-10-19T04:11:02.679Z,66
2022-10-19T04:13:33.507Z,66
2022-10-19T04:16:04.174Z,66
2022-10-19T04:18:35.963Z,67
2022-10-19T04:21:07.288Z,67
2022-10-19T04:23:36.949Z,67
2022-10-19T04:26:07.639Z,67
2022-10-19T04:28:37.049Z,68
2022-10-19T04:31:08.740Z,68
2022-10-19T04:33:39.970Z,68
2022-10-19T04:36:10.552Z,68
2022-10-19T04:38:41.843Z,68
2022-10-19T04:41:12.653Z,69
2022-10-19T04:43:43.433Z,68
2022-10-19T04:46:13.404Z,68
2022-10-19T04:48:44.693Z,68
2022-10-19T04:51:15.637Z,68
2022-10-19T04:53:45.946Z,67
2022-10-19T04:56:17.163Z,67
2022-10-19T04:58:47.980Z,67
2022-10-19T05:01:18.941Z,67
2022-10-19T05:03:48.162Z,67
2022-10-19T05:06:19.654Z,67
2022-10-19T05:08:50.557Z,66
2022-10-19T05:11:21.663Z,67
2022-10-19T05:13:52.481Z,67
2022-10-19T05:16:21.854Z,67
2022-10-19T05:18:51.551Z,68
2022-10-19T05:21:23.226Z,68
2022-10-19T05:23:54.118Z,68
2022-10-19T05:26:24.910Z,68
2022-10-19T05:28:56.021Z,67
2022-10-19T05:31:26.286Z,68
2022-10-19T05:33:58.800Z,67
2022-10-19T05:36:27.657Z,68
2022-10-19T05:38:58.280Z,68
2022-10-19T05:41:29.909Z,68
2022-10-19T05:44:00.873Z,68
2022-10-19T05:46:32.073Z,69
2022-10-19T05:49:03.796Z,69
2022-10-19T05:51:39.564Z,69
2022-10-19T05:54:11.494Z,69
2022-10-19T05:56:42.178Z,69
2022-10-19T05:59:13.486Z,69
2022-10-19T06:01:44.277Z,69
2022-10-19T06:06:47.331Z,68
2022-10-19T06:09:17.765Z,68
2022-10-19T06:11:48.592Z,68
2022-10-19T06:14:19.581Z,68
2022-10-19T06:16:51.509Z,67
2022-10-19T06:19:23.123Z,67
2022-10-19T06:21:54.287Z,67
2022-10-19T06:24:24.642Z,67
2022-10-19T06:26:55.327Z,68
2022-10-19T06:29:26.285Z,68
2022-10-19T06:31:57.040Z,68
2022-10-19T06:34:27.643Z,68
2022-10-19T06:36:58.880Z,68
2022-10-19T06:39:29.675Z,68
2022-10-19T06:42:00.985Z,68
2022-10-19T06:44:32.734Z,68
2022-10-19T06:47:03.880Z,67
2022-10-19T06:49:34.290Z,66
2022-10-19T06:52:05.546Z,68
2022-10-19T06:54:34.556Z,68
2022-10-19T06:57:05.290Z,68
2022-10-19T06:59:36.864Z,69
2022-10-19T07:02:08.067Z,70
2022-10-19T07:04:39.877Z,69
2022-10-19T07:07:10.742Z,69
2022-10-19T07:09:41.414Z,69
2022-10-19T07:12:13.448Z,69
2022-10-19T07:14:44.084Z,68
2022-10-19T07:17:14.744Z,68
2022-10-19T07:19:45.555Z,67
2022-10-19T07:22:20.461Z,67
2022-10-19T07:24:47.106Z,67
2022-10-19T07:27:18.568Z,66
2022-10-19T07:29:50.853Z,66
2022-10-19T07:32:21.919Z,66
2022-10-19T07:34:53.142Z,66
2022-10-19T07:37:25.983Z,66
2022-10-19T07:39:56.823Z,65
2022-10-19T07:42:27.378Z,65
2022-10-19T07:44:58.369Z,65
2022-10-19T07:47:30.320Z,64
2022-10-19T07:50:01.029Z,64
2022-10-19T07:52:35.900Z,64
2022-10-19T07:55:03.250Z,63
2022-10-19T07:57:33.373Z,63
2022-10-19T08:00:04.642Z,63
2022-10-19T08:02:45.562Z,63
2022-10-19T08:05:09.201Z,63
2022-10-19T08:07:37.709Z,63
2022-10-19T08:10:08.261Z,62
2022-10-19T08:12:38.501Z,62
2022-10-19T08:15:16.097Z,62
2022-10-19T08:17:47.198Z,61
2022-10-19T08:20:17.955Z,62
2022-10-19T08:22:48.790Z,62
2022-10-19T08:25:17.909Z,62
2022-10-19T08:27:48.794Z,61
2022-10-19T08:30:19.499Z,61
2022-10-19T08:32:49.987Z,61
2022-10-19T08:35:20.303Z,62
2022-10-19T08:37:51.263Z,61
2022-10-19T08:40:21.452Z,61
2022-10-19T08:42:51.611Z,61
2022-10-19T08:45:26.103Z,61
2022-10-19T08:47:56.243Z,61
2022-10-19T08:50:26.731Z,61
2022-10-19T08:52:57.573Z,60
2022-10-19T08:55:27.906Z,60
2022-10-19T08:57:59.817Z,60
2022-10-19T09:00:30.795Z,60
2022-10-19T09:03:01.186Z,60
2022-10-19T09:05:31.901Z,61
2022-10-19T09:08:02.449Z,61
2022-10-19T09:10:33.120Z,60
2022-10-19T09:13:04.847Z,61
2022-10-19T09:15:35.002Z,60
2022-10-19T09:18:06.393Z,60
2022-10-19T09:20:38.507Z,60
2022-10-19T09:23:13.121Z,60
2022-10-19T09:25:38.527Z,59
2022-10-19T09:28:09.009Z,59
2022-10-19T09:30:39.451Z,58
2022-10-19T09:33:10.017Z,58
2022-10-19T09:35:39.369Z,58
2022-10-19T09:38:10.247Z,58
2022-10-19T09:40:41.132Z,57
2022-10-19T09:43:11.704Z,57
2022-10-19T09:45:44.466Z,57
2022-10-19T09:48:16.205Z,56
2022-10-19T09:50:46.613Z,56
2022-10-19T09:53:17.439Z,55
2022-10-19T09:58:18.503Z,55
2022-10-19T10:00:50.913Z,55
2022-10-19T10:03:21.939Z,55
2022-10-19T10:05:53.736Z,55
2022-10-19T10:08:24.547Z,55
2022-10-19T10:10:55.516Z,54
2022-10-19T10:13:27.193Z,54
2022-10-19T10:15:58.415Z,54
2022-10-19T10:18:29.105Z,53
2022-10-19T10:21:00.883Z,52
2022-10-19T10:23:31.472Z,52
2022-10-19T10:26:02.068Z,51
2022-10-19T10:28:33.613Z,50
2022-10-19T10:31:04.371Z,50
2022-10-19T10:33:46.613Z,50
2022-10-19T10:36:06.070Z,50
2022-10-19T10:38:37.470Z,50
2022-10-19T10:41:08.785Z,50
2022-10-19T10:43:41.989Z,50
2022-10-19T10:46:12.383Z,50
2022-10-19T10:48:42.975Z,50
2022-10-19T10:51:13.942Z,50
2022-10-19T10:53:44.878Z,50
2022-10-19T10:56:15.489Z,49
2022-10-19T10:58:46.662Z,49
2022-10-19T11:01:17.183Z,50
2022-10-19T11:03:48.916Z,50
2022-10-19T11:06:19.642Z,50
2022-10-19T11:08:51.213Z,50
2022-10-19T11:11:21.448Z,49
2022-10-19T11:13:51.646Z,49
2022-10-19T11:16:22.445Z,49
2022-10-19T11:18:53.728Z,50
2022-10-19T11:21:24.382Z,49
2022-10-19T11:23:55.293Z,49
2022-10-19T11:26:26.023Z,48
2022-10-19T11:28:58.073Z,49
2022-10-19T11:31:29.627Z,49
2022-10-19T11:33:58.404Z,48
2022-10-19T11:36:29.205Z,49
2022-10-19T11:38:59.571Z,48
2022-10-19T11:41:30.303Z,48
2022-10-19T11:44:01.376Z,48
2022-10-19T11:46:31.937Z,47
2022-10-19T11:49:03.040Z,48
2022-10-19T11:51:33.434Z,48
2022-10-19T11:54:05.095Z,48
2022-10-19T11:56:51.471Z,48
2022-10-19T11:59:07.166Z,49
2022-10-19T12:01:42.372Z,49
2022-10-19T12:04:14.265Z,49
2022-10-19T12:06:45.302Z,49
2022-10-19T12:09:16.355Z,50
2022-10-19T12:11:48.390Z,50
2022-10-19T12:14:18.895Z,51
2022-10-19T12:16:49.647Z,52
2022-10-19T12:19:20.159Z,52
2022-10-19T12:21:51.649Z,52
2022-10-19T12:24:21.995Z,52
2022-10-19T12:26:52.811Z,53
2022-10-19T12:29:22.893Z,53
2022-10-19T12:31:54.381Z,53
2022-10-19T12:34:26.029Z,53
2022-10-19T12:36:56.582Z,53
2022-10-19T12:39:29.147Z,54
2022-10-19T12:41:59.917Z,54
2022-10-19T12:44:30.272Z,54
2022-10-19T12:47:01.126Z,55
2022-10-19T12:49:32.053Z,55
2022-10-19T12:52:02.425Z,55
2022-10-19T12:54:32.741Z,55
2022-10-19T12:57:05.391Z,55
2022-10-19T12:59:36.303Z,56
2022-10-19T13:02:06.760Z,56
2022-10-19T13:04:37.642Z,56
2022-10-19T13:07:07.647Z,56
2022-10-19T13:09:38.292Z,56
2022-10-19T13:12:09.308Z,56
2022-10-19T13:14:39.845Z,56
2022-10-19T13:17:11.920Z,56
2022-10-19T13:19:42.569Z,57
2022-10-19T13:22:13.337Z,57
2022-10-19T13:24:44.122Z,57
2022-10-19T13:27:14.975Z,57
2022-10-19T13:29:46.086Z,58
2022-10-19T13:32:17.195Z,58
2022-10-19T13:34:47.356Z,58
2022-10-19T13:37:17.975Z,58
2022-10-19T13:39:52.569Z,58
2022-10-19T13:42:27.436Z,58
2022-10-19T13:44:58.574Z,58
2022-10-19T13:47:31.313Z,58
2022-10-19T13:50:01.753Z,59
2022-10-19T13:52:32.916Z,59
2022-10-19T13:55:02.697Z,59
2022-10-19T13:57:34.402Z,59
2022-10-19T14:00:05.771Z,59
2022-10-19T14:02:37.000Z,59
2022-10-19T14:05:07.422Z,60
2022-10-19T14:07:37.201Z,60
2022-10-19T14:10:08.153Z,60
2022-10-19T14:12:39.129Z,60
2022-10-19T14:15:10.743Z,60
2022-10-19T14:17:44.585Z,60
2022-10-19T14:20:15.257Z,61
2022-10-19T14:22:45.791Z,60
2022-10-19T14:25:18.394Z,61
2022-10-19T14:27:48.962Z,61
2022-10-19T14:30:20.345Z,61
2022-10-19T14:32:50.613Z,62
2022-10-19T14:35:21.216Z,62
2022-10-19T14:37:51.782Z,62
2022-10-19T14:40:24.914Z,62
2022-10-19T14:42:55.545Z,62
2022-10-19T14:45:27.461Z,62
2022-10-19T14:47:57.638Z,63
2022-10-19T14:50:28.898Z,63
2022-10-19T14:52:59.551Z,63
2022-10-19T14:55:30.692Z,63
2022-10-19T14:58:01.138Z,63
2022-10-19T15:00:31.781Z,64
2022-10-19T15:03:02.392Z,64
2022-10-19T15:05:31.077Z,64
2022-10-19T15:08:02.269Z,64
2022-10-19T15:10:35.669Z,64
2022-10-19T15:13:06.104Z,64
2022-10-19T15:15:37.433Z,64
2022-10-19T15:18:16.303Z,64
2022-10-19T15:20:43.778Z,64
2022-10-19T15:23:08.239Z,64
2022-10-19T15:25:39.555Z,65
2022-10-19T15:30:41.885Z,64
2022-10-19T15:33:13.438Z,64
2022-10-19T15:35:44.867Z,65
2022-10-19T15:38:15.704Z,65
2022-10-19T15:40:46.918Z,65
2022-10-19T15:43:18.251Z,65
2022-10-19T15:45:50.414Z,65
2022-10-19T15:48:21.381Z,66
2022-10-19T15:50:52.615Z,65
2022-10-19T15:53:23.974Z,66
2022-10-19T15:55:55.004Z,66
2022-10-19T15:58:27.238Z,66
2022-10-19T16:00:58.794Z,66
2022-10-19T16:03:28.989Z,66
2022-10-19T16:06:00.670Z,66
2022-10-19T16:08:32.057Z,67
2022-10-19T16:11:02.921Z,66
2022-10-19T16:13:35.366Z,67
2022-10-19T16:16:11.159Z,68
2022-10-19T16:18:37.585Z,67
2022-10-19T16:21:08.647Z,67
2022-10-19T16:23:41.844Z,68
2022-10-19T16:26:11.898Z,67
2022-10-19T16:28:43.379Z,68
2022-10-19T16:31:14.920Z,68
2022-10-19T16:33:46.063Z,68
2022-10-19T16:36:18.433Z,68
2022-10-19T16:38:49.782Z,69
2022-10-19T16:41:20.983Z,69
2022-10-19T16:43:52.679Z,69
2022-10-19T16:46:23.961Z,70
2022-10-19T16:48:55.143Z,69
2022-10-19T16:51:26.222Z,69
2022-10-19T16:53:58.564Z,69
2022-10-19T16:56:30.824Z,70
2022-10-19T16:59:01.900Z,69
2022-10-19T17:01:32.870Z,69
2022-10-19T17:04:05.876Z,69
2022-10-19T17:06:39.072Z,69
2022-10-19T17:09:40.589Z,69
2022-10-19T17:11:39.943Z,68
2022-10-19T17:14:11.681Z,68
2022-10-19T17:16:43.766Z,68
2022-10-19T17:19:15.090Z,67
2022-10-19T17:21:46.998Z,67
2022-10-19T17:24:21.593Z,66
2022-10-19T17:26:51.728Z,66
2022-10-19T17:29:22.827Z,65
2022-10-19T17:31:53.505Z,66
2022-10-19T17:34:23.219Z,65
2022-10-19T17:36:53.772Z,64
2022-10-19T17:39:25.513Z,64
2022-10-19T17:41:54.579Z,64
2022-10-19T17:44:30.837Z,63
2022-10-19T17:47:02.490Z,63
2022-10-19T17:49:34.680Z,63
2022-10-19T17:52:05.744Z,63
2022-10-19T17:54:43.197Z,63
2022-10-19T17:57:08.135Z,63
2022-10-19T17:59:52.363Z,63
2022-10-19T18:02:11.906Z,62
2022-10-19T18:04:46.889Z,62
2022-10-19T18:07:18.301Z,62
2022-10-19T18:09:54.603Z,62
2022-10-19T18:12:26.390Z,61
2022-10-19T18:14:57.865Z,61
2022-10-19T18:17:34.382Z,61
2022-10-19T18:20:06.602Z,61
2022-10-19T18:22:38.876Z,61
2022-10-19T18:25:10.748Z,61
2022-10-19T18:27:42.391Z,61
2022-10-19T18:30:13.944Z,61
2022-10-19T18:32:44.765Z,61
2022-10-19T18:35:16.386Z,61
2022-10-19T18:37:47.962Z,62
2022-10-19T18:40:19.681Z,62
2022-10-19T18:42:50.574Z,62
2022-10-19T18:45:21.879Z,62
2022-10-19T18:47:53.753Z,62
2022-10-19T18:50:25.207Z,62
2022-10-19T18:52:56.864Z,62
2022-10-19T18:55:29.431Z,62
2022-10-19T18:58:00.986Z,62
2022-10-19T19:00:33.572Z,62
2022-10-19T19:03:05.048Z,61
2022-10-19T19:05:38.011Z,61
2022-10-19T19:08:10.513Z,60
2022-10-19T19:10:46.015Z,60
2022-10-19T19:13:18.232Z,60
2022-10-19T19:15:51.353Z,60
2022-10-19T19:18:24.368Z,60
2022-10-19T19:20:55.476Z,60
2022-10-19T19:23:26.893Z,59
2022-10-19T19:25:58.240Z,60
2022-10-19T19:28:29.930Z,60
2022-10-19T19:31:02.675Z,59
2022-10-19T19:33:34.614Z,59
2022-10-19T19:36:07.048Z,59
2022-10-19T19:38:39.256Z,58
2022-10-19T19:41:12.120Z,60
2022-10-19T19:43:42.186Z,59
2022-10-19T19:46:11.682Z,60
2022-10-19T19:48:45.182Z,59
2022-10-19T19:51:17.124Z,60
2022-10-19T19:53:47.727Z,60
2022-10-19T19:56:21.082Z,60
2022-10-19T19:58:53.866Z,60
2022-10-19T20:01:25.285Z,60
2022-10-19T20:03:58.940Z,61
2022-10-19T20:06:30.352Z,60
2022-10-19T20:09:06.675Z,59
2022-10-19T20:11:42.291Z,60
2022-10-19T20:14:09.910Z,60
2022-10-19T20:16:42.421Z,59
2022-10-19T20:19:16.927Z,60
2022-10-19T20:21:48.400Z,60
2022-10-19T20:24:21.020Z,60
2022-10-19T20:26:52.366Z,60
2022-10-19T20:29:23.493Z,60
2022-10-19T20:31:55.216Z,59
2022-10-19T20:34:26.805Z,60
2022-10-19T20:36:58.419Z,60
2022-10-19T20:39:32.571Z,60
2022-10-19T20:42:04.784Z,60
2022-10-19T20:44:39.086Z,60
2022-10-19T20:47:10.146Z,60
2022-10-19T20:49:41.980Z,61
2022-10-19T20:52:14.094Z,61
2022-10-19T20:54:46.041Z,61
2022-10-19T20:57:17.206Z,61
2022-10-19T20:59:50.658Z,60
2022-10-19T21:02:22.949Z,61
2022-10-19T21:04:54.239Z,61
2022-10-19T21:07:25.822Z,61
2022-10-19T21:09:57.960Z,61
2022-10-19T21:12:29.144Z,61
2022-10-19T21:15:01.141Z,61
2022-10-19T21:17:34.370Z,61
2022-10-19T21:20:06.328Z,61
2022-10-19T21:22:38.848Z,61
2022-10-19T21:25:09.914Z,61
2022-10-19T21:27:41.384Z,61
2022-10-19T21:30:10.980Z,61
2022-10-19T21:32:41.815Z,61
2022-10-19T21:35:13.811Z,61
2022-10-19T21:37:45.676Z,61
2022-10-19T21:40:17.950Z,60
2022-10-19T21:42:49.289Z,61
2022-10-19T21:45:35.756Z,60
2022-10-19T21:47:52.247Z,60
2022-10-19T21:50:23.006Z,60
2022-10-19T21:52:54.153Z,61
2022-10-19T21:55:25.825Z,61
2022-10-19T21:57:57.072Z,61
2022-10-19T22:00:31.000Z,61
2022-10-19T22:03:01.878Z,61
2022-10-19T22:05:32.889Z,61
2022-10-19T22:08:03.935Z,62
2022-10-19T22:10:36.407Z,62
2022-10-19T22:13:08.844Z,62
2022-10-19T22:15:40.299Z,62
2022-10-19T22:18:11.553Z,61
2022-10-19T22:20:41.891Z,63
2022-10-19T22:23:12.253Z,62
2022-10-19T22:25:43.414Z,62
2022-10-19T22:28:14.230Z,62
2022-10-19T22:30:44.986Z,62
2022-10-19T22:33:15.324Z,63
2022-10-19T22:35:46.542Z,63
2022-10-19T22:38:17.903Z,63
2022-10-19T22:40:49.288Z,63
2022-10-19T22:45:51.998Z,63
2022-10-19T22:48:22.952Z,63
2022-10-19T22:50:53.839Z,63
2022-10-19T22:53:25.774Z,64
2022-10-19T22:55:56.821Z,63
2022-10-19T22:58:28.830Z,63
2022-10-19T23:00:59.964Z,63
2022-10-19T23:03:31.194Z,64
2022-10-19T23:06:02.020Z,65
2022-10-19T23:08:32.881Z,64
2022-10-19T23:11:03.655Z,64
2022-10-19T23:13:35.228Z,64
2022-10-19T23:16:06.568Z,64
2022-10-19T23:18:37.276Z,64
2022-10-19T23:21:08.506Z,64
2022-10-19T23:23:40.401Z,64
2022-10-19T23:26:13.685Z,63
2022-10-19T23:28:45.613Z,64
2022-10-19T23:31:17.798Z,63
2022-10-19T23:33:48.737Z,63
2022-10-19T23:36:20.295Z,63
2022-10-19T23:38:51.487Z,63
2022-10-19T23:41:23.191Z,63
2022-10-19T23:43:54.058Z,64
2022-10-19T23:46:25.083Z,63
2022-10-19T23:48:56.576Z,64
2022-10-19T23:51:30.017Z,64
2022-10-19T23:54:01.425Z,65
2022-10-19T23:56:32.319Z,65
2022-10-19T23:59:02.545Z,65
